Time;durP1;ratioP1;P1;durP2;ratioP2;P2;SDS_P1;SDS_P2;PMS_P1;PMS_P2;Temp;Humidity;BMP_temperature;BMP_pressure;BME280_temperature;BME280_humidity;BME280_pressure;Samples;Min_cycle;Max_cycle;Signal;HPM_P1;HPM_P2
2022/08/17 00:01:27;;;;;;;22.73;17.63;;;19.40;99.90;;;;;;10282827;28;20114;-82
2022/08/17 00:06:29;;;;;;;27.67;18.80;;;19.30;99.90;;;;;;10265649;28;20137;-82
2022/08/17 00:11:37;;;;;;;25.30;19.95;;;19.30;99.90;;;;;;10283681;28;20046;-83
2022/08/17 00:16:44;;;;;;;24.42;18.50;;;19.20;99.90;;;;;;10282102;28;20102;-82
2022/08/17 00:21:47;;;;;;;26.65;18.58;;;19.10;99.90;;;;;;10285033;28;20039;-82
2022/08/17 00:26:48;;;;;;;26.33;18.67;;;19.00;99.90;;;;;;10290147;28;20030;-82
2022/08/17 00:31:49;;;;;;;25.63;18.80;;;19.00;99.90;;;;;;10289774;28;20043;-82
2022/08/17 00:36:49;;;;;;;28.38;21.15;;;18.90;99.90;;;;;;10280213;28;20547;-81
2022/08/17 00:41:50;;;;;;;26.13;18.80;;;18.80;99.90;;;;;;10291659;28;20046;-81
2022/08/17 00:46:51;;;;;;;25.35;18.40;;;18.80;99.90;;;;;;10277870;28;20046;-83
2022/08/17 00:52:07;;;;;;;29.95;21.90;;;18.80;99.90;;;;;;10313586;28;20101;-82
2022/08/17 00:57:22;;;;;;;28.23;20.45;;;18.70;99.90;;;;;;10313410;28;20030;-81
2022/08/17 01:02:23;;;;;;;31.73;22.98;;;18.60;99.90;;;;;;10291610;28;20588;-81
2022/08/17 01:07:26;;;;;;;37.72;25.05;;;18.50;99.90;;;;;;10305810;28;20598;-81
2022/08/17 01:12:27;;;;;;;41.35;26.38;;;18.40;99.90;;;;;;10291403;28;20050;-81
2022/08/17 01:17:27;;;;;;;37.40;25.88;;;18.30;99.90;;;;;;10307878;28;20798;-81
2022/08/17 01:22:28;;;;;;;31.65;23.48;;;18.30;99.90;;;;;;10303168;28;20105;-81
2022/08/17 01:27:29;;;;;;;33.85;24.08;;;18.40;99.90;;;;;;10309286;28;20034;-82
2022/08/17 01:32:30;;;;;;;30.52;22.35;;;18.50;99.90;;;;;;10277801;28;20047;-81
2022/08/17 01:37:35;;;;;;;31.70;24.23;;;18.40;99.90;;;;;;10257445;28;20050;-83
2022/08/17 01:42:45;;;;;;;31.60;22.92;;;18.40;99.90;;;;;;10243309;28;20035;-82
2022/08/17 01:47:45;;;;;;;28.70;21.40;;;18.40;99.90;;;;;;10264416;28;20482;-82
2022/08/17 01:52:48;;;;;;;36.42;23.63;;;18.30;99.90;;;;;;10262473;28;20035;-82
2022/08/17 01:57:49;;;;;;;36.22;25.58;;;18.30;99.90;;;;;;10258636;28;20066;-81
2022/08/17 02:02:50;;;;;;;41.75;30.25;;;18.20;99.90;;;;;;10281374;28;20122;-82
2022/08/17 02:07:51;;;;;;;35.90;23.98;;;18.10;99.90;;;;;;10316588;28;20485;-81
2022/08/17 02:12:52;;;;;;;37.03;23.60;;;18.20;99.90;;;;;;10286608;28;20056;-81
2022/08/17 02:17:52;;;;;;;33.60;23.38;;;18.10;99.90;;;;;;10277860;28;20036;-82
2022/08/17 02:22:53;;;;;;;30.33;20.67;;;18.00;99.90;;;;;;10306210;28;20093;-82
2022/08/17 02:27:53;;;;;;;30.40;21.90;;;17.90;99.90;;;;;;10307026;28;20053;-82
2022/08/17 02:32:54;;;;;;;26.92;19.52;;;17.90;99.90;;;;;;10297605;28;20136;-81
2022/08/17 02:37:55;;;;;;;37.83;24.05;;;17.80;99.90;;;;;;10304120;28;20105;-81
2022/08/17 02:42:56;;;;;;;36.50;23.58;;;17.80;99.90;;;;;;10309260;28;20034;-82
2022/08/17 02:47:56;;;;;;;38.85;24.30;;;17.70;99.90;;;;;;10289179;28;20125;-81
2022/08/17 02:52:57;;;;;;;27.10;20.63;;;17.70;99.90;;;;;;10291618;28;20534;-81
2022/08/17 02:57:58;;;;;;;32.88;24.17;;;17.60;99.90;;;;;;10301272;28;20038;-81
2022/08/17 03:02:59;;;;;;;33.85;23.58;;;17.60;99.90;;;;;;10297316;28;20154;-78
2022/08/17 03:08:00;;;;;;;31.75;22.77;;;17.60;99.90;;;;;;10312866;28;20057;-81
2022/08/17 03:13:01;;;;;;;55.55;29.77;;;17.60;99.90;;;;;;10301638;28;20501;-81
2022/08/17 03:18:02;;;;;;;47.78;29.92;;;17.60;99.90;;;;;;10303042;28;20042;-81
2022/08/17 03:23:03;;;;;;;35.70;25.70;;;17.50;99.90;;;;;;10306819;28;20101;-82
2022/08/17 03:28:05;;;;;;;65.07;32.70;;;17.60;99.90;;;;;;10305800;28;20033;-82
2022/08/17 03:33:08;;;;;;;38.50;27.65;;;17.50;99.90;;;;;;10300594;28;20117;-81
2022/08/17 03:38:11;;;;;;;34.85;24.55;;;17.50;99.90;;;;;;10306367;28;20508;-82
2022/08/17 03:43:12;;;;;;;63.15;34.90;;;17.60;99.90;;;;;;10317324;28;20493;-82
2022/08/17 03:58:51;;;;;;;48.80;32.28;;;17.60;99.90;;;;;;10306184;28;20046;-81
2022/08/17 04:03:51;;;;;;;48.60;32.65;;;17.60;99.90;;;;;;10296443;28;20026;-81
2022/08/17 04:08:52;;;;;;;54.42;34.03;;;17.60;99.90;;;;;;10300147;28;20062;-82
2022/08/17 04:13:52;;;;;;;40.97;29.27;;;17.70;99.90;;;;;;10303837;28;20474;-81
2022/08/17 04:18:53;;;;;;;85.57;39.85;;;17.80;99.90;;;;;;10314761;28;20620;-80
2022/08/17 04:23:53;;;;;;;56.05;34.22;;;17.80;99.90;;;;;;10315671;28;20479;-81
2022/08/17 04:28:54;;;;;;;57.90;34.15;;;17.90;99.90;;;;;;10305208;28;20023;-86
2022/08/17 04:33:55;;;;;;;54.75;36.30;;;18.00;99.90;;;;;;10296930;28;20046;-87
2022/08/17 04:38:56;;;;;;;40.28;28.27;;;18.00;99.90;;;;;;10292996;28;20483;-84
2022/08/17 04:43:57;;;;;;;47.15;33.95;;;18.10;99.90;;;;;;10314308;28;20089;-85
2022/08/17 04:48:59;;;;;;;51.13;36.72;;;18.20;99.90;;;;;;10305335;28;20702;-85
2022/08/17 04:54:02;;;;;;;48.10;34.33;;;18.30;99.90;;;;;;10317609;28;20027;-85
2022/08/17 04:59:07;;;;;;;48.00;34.95;;;18.40;99.90;;;;;;10322266;28;20034;-86
2022/08/17 05:04:11;;;;;;;38.65;27.73;;;18.50;99.90;;;;;;10326160;28;20049;-85
2022/08/17 05:09:12;;;;;;;39.28;28.77;;;18.60;99.90;;;;;;10312019;28;20050;-85
2022/08/17 05:14:13;;;;;;;35.70;26.05;;;18.80;99.90;;;;;;10314225;28;20102;-84
2022/08/17 05:19:14;;;;;;;36.20;28.17;;;18.90;99.90;;;;;;10319738;28;20092;-84
2022/08/17 05:24:14;;;;;;;38.88;30.30;;;19.00;99.90;;;;;;10306957;28;20042;-85
2022/08/17 05:29:15;;;;;;;39.72;30.63;;;19.20;99.90;;;;;;10320784;28;20045;-84
2022/08/17 05:34:15;;;;;;;39.35;30.17;;;19.30;99.90;;;;;;10313077;28;20121;-85
2022/08/17 05:39:16;;;;;;;41.47;30.70;;;19.50;99.90;;;;;;10306972;28;20037;-86
2022/08/17 05:44:17;;;;;;;40.33;30.65;;;19.70;99.90;;;;;;10312985;28;20074;-86
2022/08/17 05:49:25;;;;;;;37.10;28.60;;;19.90;99.90;;;;;;10311939;28;20811;-88
2022/08/17 05:55:03;;;;;;;41.08;28.05;;;20.00;99.90;;;;;;10321087;28;20113;-86
2022/08/17 06:00:13;;;;;;;36.75;26.98;;;20.20;99.90;;;;;;10320139;28;20065;-84
2022/08/17 06:05:45;;;;;;;35.13;25.80;;;20.30;99.90;;;;;;10311075;28;20088;-85
2022/08/17 06:10:51;;;;;;;25.02;18.27;;;20.50;99.90;;;;;;10315354;28;20045;-84
2022/08/17 06:16:06;;;;;;;21.48;17.55;;;20.80;99.90;;;;;;10304511;28;20540;-85
2022/08/17 06:21:12;;;;;;;20.38;15.40;;;21.00;99.90;;;;;;10320383;28;20486;-85
2022/08/17 06:26:21;;;;;;;19.65;15.32;;;21.10;99.90;;;;;;10308342;28;20057;-86
2022/08/17 06:31:28;;;;;;;20.75;14.45;;;21.40;99.90;;;;;;10313611;28;20528;-88
2022/08/17 06:36:47;;;;;;;20.95;15.30;;;21.60;99.90;;;;;;10300474;28;20034;-86
2022/08/17 06:42:13;;;;;;;17.17;12.82;;;21.90;99.90;;;;;;10322321;28;20667;-85
2022/08/17 06:47:24;;;;;;;15.95;11.27;;;22.20;99.90;;;;;;10304530;28;20045;-86
2022/08/17 06:52:33;;;;;;;15.70;11.90;;;22.50;99.90;;;;;;10317490;28;20489;-86
2022/08/17 06:57:42;;;;;;;12.45;10.23;;;22.80;99.90;;;;;;10294836;28;20033;-85
2022/08/17 07:03:01;;;;;;;15.15;10.85;;;23.10;99.90;;;;;;10272307;28;20032;-86
2022/08/17 07:08:33;;;;;;;12.32;9.75;;;23.40;99.90;;;;;;10299858;28;20442;-85
2022/08/17 07:13:49;;;;;;;11.75;9.23;;;23.70;99.90;;;;;;10282527;28;20050;-85
2022/08/17 07:18:51;;;;;;;11.95;9.70;;;24.00;99.90;;;;;;10305508;28;20031;-86
2022/08/17 07:24:25;;;;;;;11.40;8.80;;;24.20;99.90;;;;;;10300774;28;20052;-84
2022/08/17 07:29:26;;;;;;;11.45;9.35;;;24.50;99.90;;;;;;10296910;28;20105;-86
2022/08/17 07:34:27;;;;;;;14.85;10.57;;;24.80;99.90;;;;;;10320118;28;20038;-85
2022/08/17 07:39:28;;;;;;;13.35;10.70;;;25.10;99.90;;;;;;10309444;28;20038;-86
2022/08/17 07:44:29;;;;;;;13.55;9.88;;;25.50;99.90;;;;;;10269613;28;20149;-87
2022/08/17 07:49:29;;;;;;;13.90;10.85;;;25.70;99.90;;;;;;10264876;28;20031;-88
2022/08/17 07:54:41;;;;;;;15.65;10.98;;;26.20;99.90;;;;;;10281910;28;20093;-88
2022/08/17 08:00:04;;;;;;;15.50;11.10;;;26.50;99.90;;;;;;10290143;28;20050;-86
2022/08/17 08:05:22;;;;;;;16.55;10.63;;;26.70;99.90;;;;;;10300763;28;20027;-86
2022/08/17 08:10:39;;;;;;;20.13;11.73;;;27.00;99.90;;;;;;10298056;28;20092;-87
2022/08/17 08:15:49;;;;;;;18.10;10.93;;;27.10;99.90;;;;;;10318048;28;20049;-88
2022/08/17 08:20:58;;;;;;;20.70;11.10;;;27.50;99.90;;;;;;10275616;28;20022;-86
2022/08/17 08:26:07;;;;;;;26.60;12.68;;;27.70;99.90;;;;;;10285240;28;20426;-87
2022/08/17 08:31:36;;;;;;;24.13;13.32;;;28.00;99.90;;;;;;10296011;28;20030;-86
2022/08/17 08:36:45;;;;;;;17.55;10.82;;;28.40;99.90;;;;;;10317744;28;20042;-87
2022/08/17 08:41:59;;;;;;;16.25;11.75;;;28.60;99.50;;;;;;10291900;28;20398;-87
2022/08/17 08:47:30;;;;;;;17.70;11.38;;;28.80;99.00;;;;;;10303461;28;20059;-87
2022/08/17 08:52:32;;;;;;;13.60;10.10;;;28.90;94.50;;;;;;10291784;28;20089;-88
2022/08/17 08:57:39;;;;;;;15.68;11.15;;;29.20;94.00;;;;;;10291505;28;20038;-88
2022/08/17 09:02:59;;;;;;;14.98;12.00;;;28.80;92.90;;;;;;10310645;28;20038;-87
2022/08/17 09:08:18;;;;;;;17.60;10.80;;;28.30;93.00;;;;;;10301878;28;20069;-86
2022/08/17 09:13:53;;;;;;;15.25;9.95;;;28.00;96.00;;;;;;10299209;28;20058;-86
2022/08/17 09:18:58;;;;;;;15.70;10.98;;;28.50;98.00;;;;;;10321004;28;20117;-87
2022/08/17 09:24:06;;;;;;;12.60;9.90;;;28.50;98.80;;;;;;10325932;28;20486;-85
2022/08/17 09:29:34;;;;;;;14.90;11.02;;;28.30;95.40;;;;;;10281590;28;20214;-87
2022/08/17 09:34:42;;;;;;;11.90;10.07;;;28.20;95.70;;;;;;10275551;28;20513;-85
2022/08/17 09:40:10;;;;;;;13.55;10.88;;;29.00;94.40;;;;;;10280366;28;20033;-87
2022/08/17 09:45:34;;;;;;;12.75;8.85;;;29.50;91.20;;;;;;10297093;28;20536;-88
2022/08/17 09:51:03;;;;;;;11.87;8.30;;;29.90;92.70;;;;;;10268788;28;20415;-85
2022/08/17 09:56:25;;;;;;;12.27;9.25;;;30.40;91.00;;;;;;10302842;28;20035;-86
2022/08/17 10:01:39;;;;;;;13.82;8.98;;;30.70;90.00;;;;;;10277196;28;20089;-86
2022/08/17 10:07:06;;;;;;;11.13;8.93;;;30.10;85.00;;;;;;10302954;28;20458;-86
2022/08/17 10:12:57;;;;;;;14.43;9.90;;;29.30;87.90;;;;;;10268876;28;20373;-84
2022/08/17 10:30:05;;;;;;;11.50;8.18;;;30.60;88.30;;;;;;10115845;29;20211;-85
2022/08/17 10:35:30;;;;;;;11.63;9.32;;;30.20;84.10;;;;;;10261856;28;20059;-86
2022/08/17 10:40:46;;;;;;;15.15;9.25;;;30.60;86.10;;;;;;10265897;28;20065;-86
2022/08/17 10:46:02;;;;;;;12.15;8.52;;;30.90;84.70;;;;;;10289791;28;20390;-88
2022/08/17 10:51:07;;;;;;;11.18;8.63;;;31.00;85.40;;;;;;10303418;28;20584;-89
2022/08/17 10:56:11;;;;;;;13.88;9.50;;;31.20;80.40;;;;;;10300682;28;20048;-86
2022/08/17 11:01:12;;;;;;;13.52;9.90;;;31.30;81.00;;;;;;10286401;28;20033;-86
2022/08/17 11:06:20;;;;;;;15.32;8.45;;;31.30;81.00;;;;;;10313521;28;20600;-86
2022/08/17 11:11:24;;;;;;;13.70;8.55;;;31.60;80.70;;;;;;10316010;28;20030;-86
2022/08/17 11:16:56;;;;;;;11.90;7.53;;;31.60;78.10;;;;;;10306955;28;20391;-87
2022/08/17 11:22:20;;;;;;;10.90;8.10;;;31.90;77.80;;;;;;10307392;28;20033;-89
2022/08/17 11:27:59;;;;;;;10.63;8.07;;;32.10;80.30;;;;;;10297727;28;20070;-87
2022/08/17 11:33:28;;;;;;;10.68;7.50;;;31.80;76.10;;;;;;10263220;28;20043;-87
2022/08/17 11:38:56;;;;;;;12.38;6.80;;;31.00;73.80;;;;;;10275036;28;20034;-89
2022/08/17 11:44:20;;;;;;;10.90;7.32;;;30.70;75.70;;;;;;10278693;28;20050;-87
2022/08/17 11:55:33;;;;;;;11.82;7.30;;;30.80;76.20;;;;;;10280951;28;20125;-85
2022/08/17 12:00:49;;;;;;;11.15;7.93;;;30.20;75.80;;;;;;10284161;28;20088;-85
2022/08/17 12:06:00;;;;;;;8.45;6.75;;;30.60;75.20;;;;;;10287717;28;20584;-85
2022/08/17 12:11:06;;;;;;;12.68;7.18;;;30.30;75.00;;;;;;10306355;28;20026;-86
2022/08/17 12:16:12;;;;;;;12.07;7.28;;;29.50;75.20;;;;;;10280321;28;20420;-86
2022/08/17 12:21:25;;;;;;;6.65;5.78;;;29.10;80.30;;;;;;10323705;28;20065;-85
2022/08/17 12:26:32;;;;;;;12.00;7.47;;;29.90;75.80;;;;;;10322318;28;20027;-88
2022/08/17 12:31:47;;;;;;;10.20;8.13;;;30.70;76.40;;;;;;10283356;28;20023;-86
2022/08/17 12:36:51;;;;;;;7.55;6.72;;;31.20;73.10;;;;;;10300592;28;20034;-87
2022/08/17 12:41:55;;;;;;;;;;;31.60;73.30;;;;;;10323116;28;20038;-85
2022/08/17 12:47:18;;;;;;;7.43;6.20;;;31.60;71.60;;;;;;10290438;28;20469;-86
2022/08/17 12:52:25;;;;;;;8.98;6.57;;;32.00;68.70;;;;;;10310182;28;20034;-87
2022/08/17 12:57:33;;;;;;;10.32;6.20;;;31.80;68.70;;;;;;10323058;28;20023;-87
2022/08/17 13:03:01;;;;;;;8.32;5.97;;;32.00;72.20;;;;;;10279159;28;20864;-89
2022/08/17 13:08:12;;;;;;;8.00;6.45;;;32.30;67.90;;;;;;10298996;28;20057;-87
2022/08/17 13:13:20;;;;;;;12.18;7.47;;;32.60;69.70;;;;;;10303219;28;20038;-85
2022/08/17 13:18:43;;;;;;;9.68;8.02;;;32.60;69.00;;;;;;10268584;28;20395;-88
2022/08/17 13:24:18;;;;;;;11.50;8.43;;;31.90;69.40;;;;;;10306820;28;20040;-91
2022/08/17 13:29:24;;;;;;;11.75;8.27;;;31.10;72.30;;;;;;10311929;28;20034;-83
2022/08/17 13:34:28;;;;;;;9.55;7.13;;;31.30;70.70;;;;;;10320817;28;20062;-84
2022/08/17 13:39:39;;;;;;;8.10;7.28;;;31.20;72.10;;;;;;10292562;28;20039;-87
2022/08/17 13:44:41;;;;;;;10.80;6.90;;;31.20;69.30;;;;;;10300092;28;20030;-85
2022/08/17 13:49:43;;;;;;;10.45;7.30;;;30.90;72.00;;;;;;10306977;28;20031;-85
2022/08/17 13:54:50;;;;;;;10.35;6.63;;;30.90;73.00;;;;;;10305650;28;20103;-87
2022/08/17 14:00:04;;;;;;;9.57;7.38;;;31.10;69.70;;;;;;10277600;28;20440;-86
2022/08/17 14:05:05;;;;;;;13.35;7.65;;;31.30;69.00;;;;;;10311553;28;20058;-85
2022/08/17 14:10:14;;;;;;;9.23;7.32;;;31.50;68.60;;;;;;10313626;28;20488;-86
2022/08/17 14:15:19;;;;;;;10.05;6.65;;;31.30;69.70;;;;;;10314434;28;20434;-83
2022/08/17 14:20:21;;;;;;;8.68;7.35;;;31.10;68.10;;;;;;10298659;28;20034;-86
2022/08/17 14:25:26;;;;;;;10.88;6.70;;;30.90;68.00;;;;;;10303535;28;20537;-85
2022/08/17 14:30:28;;;;;;;7.65;6.35;;;30.70;68.90;;;;;;10304041;28;20126;-85
2022/08/17 14:35:29;;;;;;;10.23;7.35;;;30.40;69.40;;;;;;10268600;28;20031;-84
2022/08/17 14:40:29;;;;;;;10.07;7.38;;;30.30;71.10;;;;;;10310163;28;20085;-85
2022/08/17 14:45:30;;;;;;;11.15;7.78;;;30.30;71.10;;;;;;10300995;28;20555;-85
2022/08/17 14:50:33;;;;;;;13.40;7.30;;;30.40;71.90;;;;;;10316658;28;20030;-88
2022/08/17 14:55:35;;;;;;;10.85;7.03;;;30.50;71.20;;;;;;10301738;28;20113;-85
2022/08/17 15:00:37;;;;;;;10.00;7.22;;;30.40;71.60;;;;;;10310743;28;20482;-86
2022/08/17 15:05:38;;;;;;;9.30;7.15;;;30.30;70.60;;;;;;10311639;28;20026;-88
2022/08/17 15:10:39;;;;;;;11.25;7.55;;;30.10;70.20;;;;;;10298726;28;20048;-85
2022/08/17 15:15:39;;;;;;;8.43;7.00;;;30.00;71.00;;;;;;10285451;28;20400;-88
2022/08/17 15:20:41;;;;;;;10.45;6.63;;;29.90;71.30;;;;;;10290064;28;20034;-87
2022/08/17 15:25:42;;;;;;;9.52;7.22;;;29.70;72.00;;;;;;10289831;28;20050;-86
2022/08/17 15:30:43;;;;;;;10.32;5.65;;;29.60;70.90;;;;;;10293565;28;20129;-86
2022/08/17 15:35:48;;;;;;;9.13;6.13;;;29.70;71.30;;;;;;10316027;28;20121;-87
2022/08/17 15:40:50;;;;;;;10.73;7.05;;;29.70;70.60;;;;;;10295537;28;20035;-87
2022/08/17 15:46:13;;;;;;;9.35;6.78;;;29.70;70.70;;;;;;10290232;28;20117;-86
2022/08/17 15:51:17;;;;;;;7.53;6.60;;;29.60;71.30;;;;;;10283628;28;20074;-86
2022/08/17 15:56:18;;;;;;;8.98;6.75;;;29.50;72.00;;;;;;10290445;28;20039;-86
2022/08/17 16:01:21;;;;;;;8.45;7.00;;;29.50;71.10;;;;;;10287254;28;20026;-86
2022/08/17 16:06:26;;;;;;;10.02;7.05;;;29.40;70.90;;;;;;10308104;28;20046;-87
2022/08/17 16:11:26;;;;;;;8.93;7.00;;;29.40;73.40;;;;;;10293007;28;20026;-86
2022/08/17 16:16:30;;;;;;;8.95;7.32;;;29.30;74.00;;;;;;10305703;28;20034;-86
2022/08/17 16:21:31;;;;;;;11.02;7.30;;;29.30;72.80;;;;;;10313352;28;20080;-86
2022/08/17 16:26:34;;;;;;;11.43;7.10;;;29.30;75.60;;;;;;10286795;28;20111;-86
2022/08/17 16:31:36;;;;;;;15.63;7.63;;;29.20;73.70;;;;;;10276878;28;20449;-86
2022/08/17 16:36:36;;;;;;;10.35;7.45;;;29.10;74.40;;;;;;10282443;28;20057;-87
2022/08/17 16:41:46;;;;;;;9.20;7.40;;;29.00;73.90;;;;;;10285007;28;20462;-86
2022/08/17 16:46:48;;;;;;;9.88;7.78;;;28.90;74.60;;;;;;10296146;28;20038;-87
2022/08/17 16:51:49;;;;;;;11.82;7.65;;;28.70;79.90;;;;;;10293419;28;20414;-86
2022/08/17 16:56:52;;;;;;;10.52;7.70;;;28.40;78.90;;;;;;10304578;28;20053;-89
2022/08/17 17:01:52;;;;;;;9.95;7.88;;;28.10;83.40;;;;;;10274639;28;20019;-88
2022/08/17 17:07:17;;;;;;;10.48;7.68;;;27.70;85.00;;;;;;10281262;28;20053;-86
2022/08/17 17:12:18;;;;;;;10.65;8.45;;;27.20;87.60;;;;;;10281976;28;20066;-87
2022/08/17 17:17:36;;;;;;;10.10;8.15;;;26.90;88.90;;;;;;10302930;28;20113;-86
2022/08/17 17:23:01;;;;;;;10.95;7.88;;;26.50;90.50;;;;;;10298235;28;20095;-87
2022/08/17 17:28:13;;;;;;;12.52;8.60;;;26.10;91.50;;;;;;10298084;28;20034;-86
2022/08/17 17:33:54;;;;;;;11.73;9.95;;;25.80;93.40;;;;;;10286852;28;20050;-86
2022/08/17 17:39:03;;;;;;;13.70;9.88;;;25.40;94.30;;;;;;10245180;28;20053;-87
2022/08/17 17:44:09;;;;;;;12.20;8.68;;;25.00;95.50;;;;;;10296445;28;20029;-86
2022/08/17 17:49:12;;;;;;;13.82;9.13;;;24.70;96.80;;;;;;10296161;28;20352;-84
2022/08/17 17:54:37;;;;;;;11.93;9.50;;;24.40;98.30;;;;;;10274451;28;20039;-87
2022/08/17 17:59:52;;;;;;;13.82;10.00;;;24.10;99.80;;;;;;10265550;28;20064;-85
2022/08/17 18:05:01;;;;;;;15.10;9.82;;;23.90;99.90;;;;;;10307780;28;20038;-85
2022/08/17 18:10:18;;;;;;;14.98;10.10;;;23.70;99.90;;;;;;10273410;28;20058;-86
2022/08/17 18:15:40;;;;;;;13.48;10.90;;;23.50;99.90;;;;;;10293862;28;20494;-87
2022/08/17 18:20:42;;;;;;;14.35;12.27;;;23.40;99.90;;;;;;10300264;28;20045;-84
2022/08/17 18:25:50;;;;;;;16.38;12.50;;;23.90;99.90;;;;;;10295114;28;20127;-85
2022/08/17 18:31:19;;;;;;;20.83;12.80;;;24.00;99.90;;;;;;10281096;28;20549;-84
2022/08/17 18:36:35;;;;;;;19.83;13.85;;;24.00;99.90;;;;;;10289713;28;20124;-85
2022/08/17 18:41:49;;;;;;;21.77;14.90;;;23.80;99.90;;;;;;10289494;28;20031;-84
2022/08/17 18:47:12;;;;;;;20.37;12.67;;;23.40;99.90;;;;;;10294637;28;20033;-84
2022/08/17 18:52:21;;;;;;;23.52;15.40;;;23.30;99.90;;;;;;10302135;28;20030;-84
2022/08/17 18:57:37;;;;;;;18.02;13.45;;;23.10;99.90;;;;;;10312198;28;20032;-84
2022/08/17 19:02:51;;;;;;;21.88;15.80;;;23.00;99.90;;;;;;10283877;28;20037;-84
2022/08/17 19:07:53;;;;;;;21.48;16.33;;;22.90;99.90;;;;;;10267150;28;20090;-84
2022/08/17 19:13:00;;;;;;;23.48;16.30;;;22.70;99.90;;;;;;10297594;28;20042;-84
2022/08/17 19:18:13;;;;;;;20.55;15.60;;;22.60;99.90;;;;;;10296233;28;20031;-84
2022/08/17 19:23:17;;;;;;;21.50;16.35;;;22.50;99.90;;;;;;10306448;28;20499;-84
2022/08/17 19:28:28;;;;;;;22.50;16.50;;;22.50;99.90;;;;;;10305724;28;20035;-84
2022/08/17 19:33:30;;;;;;;20.02;14.60;;;22.30;99.90;;;;;;10295880;28;20038;-84
2022/08/17 19:38:42;;;;;;;21.63;15.70;;;22.20;99.90;;;;;;10312213;28;20493;-84
2022/08/17 19:44:02;;;;;;;22.25;16.13;;;22.10;99.90;;;;;;10288824;28;20030;-84
2022/08/17 19:49:14;;;;;;;18.15;15.38;;;22.00;99.90;;;;;;10295760;28;20097;-84
2022/08/17 19:54:32;;;;;;;19.35;15.23;;;21.90;99.90;;;;;;10307736;28;20030;-83
2022/08/17 19:59:47;;;;;;;22.10;15.23;;;21.90;99.90;;;;;;10306802;28;20034;-84
2022/08/17 20:04:51;;;;;;;20.17;16.58;;;21.90;99.90;;;;;;10302259;28;20073;-84
2022/08/17 20:10:06;;;;;;;25.15;17.00;;;21.80;99.90;;;;;;10298621;28;20076;-84
2022/08/17 20:15:17;;;;;;;19.77;16.23;;;21.70;99.90;;;;;;10264738;28;20041;-84
2022/08/17 20:20:50;;;;;;;24.38;17.60;;;21.70;99.90;;;;;;10274348;28;20066;-84
2022/08/17 20:26:15;;;;;;;18.60;16.15;;;21.70;99.90;;;;;;10278464;28;20052;-84
2022/08/17 20:31:44;;;;;;;22.83;18.65;;;21.70;99.90;;;;;;10273746;28;20035;-83
2022/08/17 20:37:02;;;;;;;22.40;17.27;;;21.70;99.90;;;;;;10277524;28;20048;-83
2022/08/17 20:42:21;;;;;;;24.08;18.65;;;21.60;99.90;;;;;;10279650;28;20030;-84
2022/08/17 20:47:27;;;;;;;28.15;19.15;;;21.40;99.90;;;;;;10276036;28;20038;-84
2022/08/17 20:52:57;;;;;;;24.00;17.60;;;21.30;99.90;;;;;;10263011;28;20030;-84
2022/08/17 20:58:21;;;;;;;24.58;18.70;;;21.30;99.90;;;;;;10287137;28;20580;-84
2022/08/17 21:03:22;;;;;;;21.38;16.40;;;21.30;99.90;;;;;;10297997;28;20494;-83
2022/08/17 21:08:41;;;;;;;22.77;17.67;;;21.40;99.90;;;;;;10308577;28;20066;-85
2022/08/17 21:13:45;;;;;;;22.55;18.05;;;21.30;99.90;;;;;;10287110;28;20100;-83
2022/08/17 21:19:02;;;;;;;22.85;18.70;;;21.20;99.90;;;;;;10313622;28;20037;-83
2022/08/17 21:24:18;;;;;;;25.70;19.30;;;21.00;99.90;;;;;;10265618;28;20493;-84
2022/08/17 21:29:22;;;;;;;27.88;19.85;;;20.90;99.90;;;;;;10279230;28;20034;-83
2022/08/17 21:34:27;;;;;;;29.45;21.05;;;20.80;99.90;;;;;;10280267;28;20545;-84
2022/08/17 21:39:39;;;;;;;26.20;21.02;;;20.70;99.90;;;;;;10278214;28;20467;-84
2022/08/17 21:44:47;;;;;;;23.58;17.50;;;20.70;99.90;;;;;;10278633;28;20042;-83
2022/08/17 21:49:48;;;;;;;22.83;18.75;;;20.70;99.90;;;;;;10281122;28;20137;-83
2022/08/17 21:55:01;;;;;;;23.92;19.40;;;20.70;99.90;;;;;;10277956;28;20174;-83
2022/08/17 22:00:14;;;;;;;24.90;18.88;;;20.60;99.90;;;;;;10277559;28;20070;-84
2022/08/17 22:05:15;;;;;;;23.45;19.45;;;20.60;99.90;;;;;;10278245;28;20505;-84
2022/08/17 22:10:36;;;;;;;23.52;19.80;;;20.50;99.90;;;;;;10278055;28;20047;-85
2022/08/17 22:15:38;;;;;;;26.65;19.58;;;20.50;99.90;;;;;;10259885;28;20583;-84
2022/08/17 22:20:39;;;;;;;26.08;20.08;;;20.50;99.90;;;;;;10262084;28;20038;-83
2022/08/17 22:25:59;;;;;;;26.05;20.00;;;20.50;99.90;;;;;;10273936;28;20031;-83
2022/08/17 22:31:03;;;;;;;25.13;18.75;;;20.50;99.90;;;;;;10278674;28;20019;-83
2022/08/17 22:36:21;;;;;;;29.38;23.25;;;20.50;99.90;;;;;;10275857;28;20046;-84
2022/08/17 22:41:31;;;;;;;29.02;23.08;;;20.40;99.90;;;;;;10275531;28;20043;-84
2022/08/17 22:46:38;;;;;;;26.30;21.98;;;20.40;99.90;;;;;;10277791;28;20031;-84
2022/08/17 22:51:39;;;;;;;28.48;22.38;;;20.30;99.90;;;;;;10277434;28;20121;-84
2022/08/17 23:02:32;;;;;;;;;;;20.30;99.90;;;;;;10298017;28;20046;-83
2022/08/17 23:07:33;;;;;;;27.85;22.30;;;20.30;99.90;;;;;;10298692;28;19922;-84
2022/08/17 23:12:37;;;;;;;28.77;22.63;;;20.30;99.90;;;;;;10268648;28;20467;-83
2022/08/17 23:17:38;;;;;;;26.37;21.20;;;20.30;99.90;;;;;;10282455;28;21090;-83
2022/08/17 23:22:40;;;;;;;30.27;23.38;;;20.20;99.90;;;;;;10284958;28;20046;-84
2022/08/17 23:27:42;;;;;;;29.05;22.73;;;20.10;99.90;;;;;;10296471;28;20045;-84
2022/08/17 23:32:43;;;;;;;26.15;21.40;;;20.00;99.90;;;;;;10268271;28;20042;-84
2022/08/17 23:37:43;;;;;;;32.50;24.40;;;20.00;99.90;;;;;;10284616;28;20438;-84
2022/08/17 23:42:44;;;;;;;31.05;23.45;;;20.00;99.90;;;;;;10286279;28;20113;-83
2022/08/17 23:47:45;;;;;;;31.70;23.73;;;20.00;99.90;;;;;;10267692;28;20078;-83
2022/08/17 23:52:46;;;;;;;30.48;23.27;;;20.00;99.90;;;;;;10297300;28;20070;-83
2022/08/17 23:57:47;;;;;;;29.88;22.40;;;20.00;99.90;;;;;;10284780;28;20547;-84
